createdAt,value
2022-08-05T00:00:46.462Z,100332.38
2022-08-05T00:03:18.117Z,100327.19
2022-08-05T00:06:06.403Z,100334.00
2022-08-05T00:08:36.191Z,100334.00
2022-08-05T00:11:07.531Z,100332.91
2022-08-05T00:13:53.176Z,100322.03
2022-08-05T00:16:35.437Z,100308.44
2022-08-05T00:19:05.537Z,100291.00
2022-08-05T00:21:35.623Z,100297.28
2022-08-05T00:24:10.436Z,100289.94
2022-08-05T00:26:39.528Z,100280.66
2022-08-05T00:29:18.659Z,100270.59
2022-08-05T00:32:10.603Z,100271.97
2022-08-05T00:34:55.705Z,100261.34
2022-08-05T00:37:35.583Z,100254.03
2022-08-05T00:40:17.930Z,100242.88
2022-08-05T00:42:55.468Z,100247.47
2022-08-05T00:45:28.407Z,100238.22
2022-08-05T00:48:10.144Z,100231.72
2022-08-05T00:50:39.138Z,100219.75
2022-08-05T00:53:59.895Z,100215.94
2022-08-05T00:55:58.557Z,100204.53
2022-08-05T00:58:27.321Z,100192.84
2022-08-05T01:00:56.229Z,100186.06
2022-08-05T01:03:30.758Z,100181.72
2022-08-05T01:06:02.601Z,100185.25
2022-08-05T01:08:43.958Z,100177.91
2022-08-05T01:11:22.535Z,100174.09
2022-08-05T01:14:08.783Z,100181.41
2022-08-05T01:16:50.367Z,100179.53
2022-08-05T01:20:01.764Z,100186.88
2022-08-05T01:22:48.586Z,100187.38
2022-08-05T01:25:42.516Z,100190.09
2022-08-05T01:28:37.315Z,100171.34
2022-08-05T01:31:12.251Z,100168.94
2022-08-05T01:33:49.339Z,100162.94
2022-08-05T01:36:28.406Z,100171.34
2022-08-05T01:39:01.221Z,100168.34
2022-08-05T01:41:33.937Z,100168.06
2022-08-05T01:44:09.988Z,100158.53
2022-08-05T01:46:46.840Z,100155.56
2022-08-05T01:49:22.940Z,100152.53
2022-08-05T01:51:53.303Z,100163.16
2022-08-05T01:54:25.589Z,100148.97
2022-08-05T01:58:29.495Z,100147.31
2022-08-05T01:59:47.939Z,100136.97
2022-08-05T02:02:17.435Z,100130.16
2022-08-05T02:04:49.495Z,100123.66
2022-08-05T02:07:22.200Z,100126.09
2022-08-05T02:09:51.262Z,100122.03
2022-08-05T02:12:27.141Z,100105.75
2022-08-05T02:15:04.655Z,100123.47
2022-08-05T02:18:31.909Z,100119.94
2022-08-05T02:20:48.761Z,100125.94
2022-08-05T02:23:22.531Z,100124.59
2022-08-05T02:25:53.485Z,100130.84
2022-08-05T02:28:29.378Z,100137.66
2022-08-05T02:31:04.115Z,100134.13
2022-08-05T02:33:38.934Z,100135.47
2022-08-05T02:36:13.727Z,100147.44
2022-08-05T02:38:53.545Z,100133.03
2022-08-05T02:41:28.821Z,100127.91
2022-08-05T02:44:11.911Z,100133.59
2022-08-05T02:46:59.720Z,100128.44
2022-08-05T02:49:36.529Z,100120.56
2022-08-05T02:52:09.506Z,100113.47
2022-08-05T02:54:42.699Z,100118.38
2022-08-05T02:58:20.519Z,100121.91
2022-08-05T03:00:10.629Z,100121.34
2022-08-05T03:02:42.946Z,100120.25
2022-08-05T03:05:13.543Z,100121.34
2022-08-05T03:08:00.457Z,100116.19
2022-08-05T03:10:30.937Z,100113.22
2022-08-05T03:15:26.174Z,100113.72
2022-08-05T03:18:08.326Z,100122.69
2022-08-05T03:20:37.721Z,100116.44
2022-08-05T03:23:13.419Z,100109.38
2022-08-05T03:26:04.779Z,100115.59
2022-08-05T03:28:30.947Z,100114.78
2022-08-05T03:31:00.750Z,100115.31
2022-08-05T03:33:51.156Z,100097.41
2022-08-05T03:36:28.006Z,100103.63
2022-08-05T03:38:59.131Z,100111.78
2022-08-05T03:41:33.236Z,100103.84
2022-08-05T03:44:11.336Z,100104.13
2022-08-05T03:46:40.228Z,100094.91
2022-08-05T03:49:10.795Z,100099.25
2022-08-05T03:52:39.167Z,100105.75
2022-08-05T03:55:51.989Z,100123.38
2022-08-05T03:57:42.425Z,100115.88
2022-08-05T04:00:15.972Z,100118.59
2022-08-05T04:02:58.753Z,100107.19
2022-08-05T04:05:33.566Z,100120.00
2022-08-05T04:08:05.488Z,100118.09
2022-08-05T04:10:38.131Z,100117.03
2022-08-05T04:13:08.616Z,100119.19
2022-08-05T04:15:37.301Z,100121.34
2022-08-05T04:18:09.461Z,100128.97
2022-08-05T04:20:41.346Z,100125.72
2022-08-05T04:23:12.247Z,100122.72
2022-08-05T04:26:00.180Z,100128.44
2022-08-05T04:28:31.649Z,100133.31
2022-08-05T04:31:01.475Z,100130.84
2022-08-05T04:33:54.829Z,100132.22
2022-08-05T04:36:50.254Z,100135.19
2022-08-05T04:39:08.058Z,100133.84
2022-08-05T04:41:37.789Z,100134.38
2022-08-05T04:44:09.385Z,100149.00
2022-08-05T04:46:38.804Z,100154.66
2022-08-05T04:49:12.168Z,100149.09
2022-08-05T04:51:44.611Z,100156.88
2022-08-05T04:54:14.865Z,100161.91
2022-08-05T04:56:44.592Z,100159.88
2022-08-05T04:59:21.770Z,100155.94
2022-08-05T05:02:07.155Z,100158.09
2022-08-05T05:04:43.888Z,100166.41
2022-08-05T05:07:17.460Z,100170.88
2022-08-05T05:09:45.799Z,100166.50
2022-08-05T05:12:15.901Z,100169.50
2022-08-05T05:14:50.912Z,100168.97
2022-08-05T05:17:56.729Z,100170.63
2022-08-05T05:20:33.840Z,100154.56
2022-08-05T05:23:08.227Z,100168.19
2022-08-05T05:25:47.857Z,100165.47
2022-08-05T05:28:15.997Z,100171.47
2022-08-05T05:30:44.146Z,100169.81
2022-08-05T05:33:23.487Z,100166.22
2022-08-05T05:35:51.807Z,100171.88
2022-08-05T05:38:26.809Z,100170.66
2022-08-05T05:40:56.266Z,100177.88
2022-08-05T05:43:58.200Z,100184.28
2022-08-05T05:46:19.257Z,100195.88
2022-08-05T05:48:49.890Z,100197.19
2022-08-05T05:51:50.544Z,100197.03
2022-08-05T05:54:22.152Z,100193.03
2022-08-05T05:57:13.704Z,100192.94
2022-08-05T05:59:47.336Z,100190.22
2022-08-05T06:02:17.187Z,100197.44
2022-08-05T06:05:01.410Z,100198.78
2022-08-05T06:07:41.774Z,100201.75
2022-08-05T06:10:12.606Z,100196.94
2022-08-05T06:12:42.353Z,100202.84
2022-08-05T06:15:23.742Z,100194.66
2022-08-05T06:17:54.721Z,100196.44
2022-08-05T06:20:23.587Z,100186.00
2022-08-05T06:22:51.605Z,100186.66
2022-08-05T06:25:59.804Z,100185.78
2022-08-05T06:28:21.239Z,100184.53
2022-08-05T06:30:50.131Z,100188.91
2022-08-05T06:33:19.061Z,100194.28
2022-08-05T06:36:03.963Z,100200.63
2022-08-05T06:38:36.805Z,100197.38
2022-08-05T06:41:08.133Z,100199.69
2022-08-05T06:43:58.072Z,100207.28
2022-08-05T06:46:30.009Z,100201.38
2022-08-05T06:49:00.822Z,100208.75
2022-08-05T06:51:30.993Z,100205.22
2022-08-05T06:54:00.119Z,100202.63
2022-08-05T06:56:34.354Z,100207.84
2022-08-05T06:59:03.183Z,100213.44
2022-08-05T07:01:32.320Z,100211.63
2022-08-05T07:04:02.371Z,100195.13
2022-08-05T07:06:31.751Z,100199.53
2022-08-05T07:09:03.834Z,100200.41
2022-08-05T07:11:37.155Z,100209.44
2022-08-05T07:14:29.729Z,100204.25
2022-08-05T07:18:08.485Z,100194.47
2022-08-05T07:22:42.682Z,100209.06
2022-08-05T07:25:54.489Z,100211.16
2022-08-05T07:28:05.337Z,100197.44
2022-08-05T07:30:39.865Z,100189.41
2022-08-05T07:33:15.730Z,100191.84
2022-08-05T07:36:02.606Z,100194.28
2022-08-05T07:38:42.602Z,100191.41
2022-08-05T07:42:06.798Z,100187.94
2022-08-05T07:44:04.149Z,100188.75
2022-08-05T07:46:33.792Z,100206.94
2022-08-05T07:49:05.864Z,100198.09
2022-08-05T07:51:48.663Z,100199.31
2022-08-05T07:54:34.091Z,100190.72
2022-08-05T07:57:17.644Z,100170.22
2022-08-05T08:00:01.866Z,100165.16
2022-08-05T08:03:14.084Z,100160.81
2022-08-05T08:05:26.375Z,100168.94
2022-08-05T08:08:00.256Z,100179.66
2022-08-05T08:10:28.884Z,100171.66
2022-08-05T08:13:01.504Z,100161.16
2022-08-05T08:16:33.252Z,100169.56
2022-08-05T08:18:20.993Z,100182.91
2022-08-05T08:21:02.179Z,100185.94
2022-08-05T08:24:01.970Z,100184.19
2022-08-05T08:26:29.674Z,100185.84
2022-08-05T08:28:59.813Z,100190.53
2022-08-05T08:31:48.236Z,100174.78
2022-08-05T08:34:16.616Z,100179.88
2022-08-05T08:36:54.665Z,100177.50
2022-08-05T08:39:24.945Z,100189.13
2022-08-05T08:41:58.650Z,100187.94
2022-08-05T08:45:22.542Z,100184.44
2022-08-05T08:48:06.618Z,100180.25
2022-08-05T08:50:32.966Z,100172.34
2022-08-05T08:53:12.364Z,100178.69
2022-08-05T08:56:03.766Z,100173.38
2022-08-05T08:58:43.005Z,100167.91
2022-08-05T09:01:16.618Z,100161.78
2022-08-05T09:03:48.360Z,100160.34
2022-08-05T09:06:40.276Z,100175.47
2022-08-05T09:09:09.346Z,100174.19
2022-08-05T09:11:51.005Z,100175.47
2022-08-05T09:14:57.029Z,100182.69
2022-08-05T09:17:40.828Z,100168.47
2022-08-05T09:20:05.544Z,100168.41
2022-08-05T09:23:09.529Z,100165.72
2022-08-05T09:26:03.068Z,100153.41
2022-08-05T09:28:39.506Z,100161.03
2022-08-05T09:31:22.230Z,100178.34
2022-08-05T09:33:59.714Z,100186.16
2022-08-05T09:36:54.096Z,100184.91
2022-08-05T09:39:27.552Z,100203.25
2022-08-05T09:42:07.947Z,100221.34
2022-08-05T09:44:38.597Z,100228.22
2022-08-05T09:47:15.432Z,100229.44
2022-08-05T09:50:00.649Z,100230.03
2022-08-05T09:52:34.397Z,100249.75
2022-08-05T09:55:55.476Z,100255.81
2022-08-05T09:57:54.689Z,100260.25
2022-08-05T10:00:27.639Z,100230.88
2022-08-05T10:02:58.052Z,100197.22
2022-08-05T10:05:28.977Z,100190.16
2022-08-05T10:08:35.880Z,100212.81
2022-08-05T10:11:04.691Z,100221.03
2022-08-05T10:13:43.978Z,100226.47
2022-08-05T10:16:41.903Z,100222.41
2022-08-05T10:19:23.791Z,100182.38
2022-08-05T10:22:00.131Z,100189.22
2022-08-05T10:24:33.375Z,100202.28
2022-08-05T10:27:07.880Z,100199.03
2022-08-05T10:30:41.365Z,100206.09
2022-08-05T10:32:52.054Z,100197.41
2022-08-05T10:35:14.383Z,100188.44
2022-08-05T10:37:44.941Z,100182.75
2022-08-05T10:40:27.923Z,100186.28
2022-08-05T10:43:02.566Z,100172.94
2022-08-05T10:45:40.030Z,100166.69
2022-08-05T10:48:52.343Z,100147.09
2022-08-05T10:51:29.057Z,100131.59
2022-08-05T10:54:01.668Z,100123.97
2022-08-05T10:57:03.548Z,100128.31
2022-08-05T11:00:03.062Z,100146.28
2022-08-05T11:02:34.593Z,100154.69
2022-08-05T11:05:07.358Z,100153.88
2022-08-05T11:08:02.439Z,100140.28
2022-08-05T11:10:37.131Z,100137.31
2022-08-05T11:13:09.366Z,100147.66
2022-08-05T11:16:47.395Z,100140.03
2022-08-05T11:20:10.665Z,100135.13
2022-08-05T11:22:42.130Z,100141.88
2022-08-05T11:26:04.762Z,100139.63
2022-08-05T11:28:58.731Z,100146.50
2022-08-05T11:31:56.930Z,100146.78
2022-08-05T11:34:59.933Z,100154.19
2022-08-05T11:38:29.106Z,100166.72
2022-08-05T11:41:35.040Z,100161.28
2022-08-05T11:44:08.099Z,100158.56
2022-08-05T11:47:09.829Z,100152.88
2022-08-05T11:49:27.130Z,100150.97
2022-08-05T11:51:57.594Z,100152.88
2022-08-05T11:54:32.925Z,100147.72
2022-08-05T11:57:08.288Z,100144.44
2022-08-05T11:59:58.708Z,100156.44
2022-08-05T12:02:32.928Z,100157.81
2022-08-05T12:05:07.327Z,100157.22
2022-08-05T12:08:08.073Z,100166.19
2022-08-05T12:10:38.660Z,100168.63
2022-08-05T12:13:27.661Z,100175.97
2022-08-05T12:16:15.637Z,100177.59
2022-08-05T12:18:49.367Z,100178.91
2022-08-05T12:21:24.130Z,100189.81
2022-08-05T12:24:04.271Z,100185.72
2022-08-05T12:26:34.277Z,100184.38
2022-08-05T12:29:03.255Z,100193.03
2022-08-05T12:31:46.305Z,100191.38
2022-08-05T12:34:21.466Z,100200.84
2022-08-05T12:37:10.700Z,100184.25
2022-08-05T12:39:40.350Z,100185.59
2022-08-05T12:42:15.261Z,100194.00
2022-08-05T12:44:44.683Z,100195.84
2022-08-05T12:47:25.530Z,100193.69
2022-08-05T12:50:03.449Z,100180.66
2022-08-05T12:52:59.247Z,100173.06
2022-08-05T12:55:32.893Z,100162.75
2022-08-05T12:58:52.741Z,100167.94
2022-08-05T13:02:03.285Z,100166.88
2022-08-05T13:03:45.408Z,100166.06
2022-08-05T13:06:16.786Z,100170.72
2022-08-05T13:09:08.771Z,100156.94
2022-08-05T13:12:01.275Z,100151.25
2022-08-05T13:14:36.847Z,100152.91
2022-08-05T13:17:10.352Z,100151.97
2022-08-05T13:19:52.268Z,100139.56
2022-08-05T13:22:28.557Z,100144.09
2022-08-05T13:25:05.203Z,100142.41
2022-08-05T13:27:41.035Z,100152.22
2022-08-05T13:30:34.658Z,100146.94
2022-08-05T13:33:01.588Z,100142.53
2022-08-05T13:35:47.531Z,100143.06
2022-08-05T13:38:34.183Z,100147.44
2022-08-05T13:41:05.936Z,100135.44
2022-08-05T13:43:43.990Z,100138.25
2022-08-05T13:46:14.884Z,100126.53
2022-08-05T13:49:00.935Z,100145.31
2022-08-05T13:51:40.078Z,100145.94
2022-08-05T13:54:12.278Z,100144.59
2022-08-05T13:56:45.048Z,100142.13
2022-08-05T13:59:21.329Z,100148.75
2022-08-05T14:01:58.313Z,100149.91
2022-08-05T14:04:50.154Z,100151.59
2022-08-05T14:07:26.204Z,100148.00
2022-08-05T14:10:12.917Z,100136.03
2022-08-05T14:12:48.606Z,100145.56
2022-08-05T14:16:05.754Z,100154.53
2022-08-05T14:18:06.521Z,100156.47
2022-08-05T14:20:54.863Z,100141.81
2022-08-05T14:23:26.434Z,100134.72
2022-08-05T14:25:58.542Z,100141.47
2022-08-05T14:28:28.006Z,100139.00
2022-08-05T14:30:56.615Z,100125.31
2022-08-05T14:33:24.761Z,100139.44
2022-08-05T14:35:54.945Z,100131.50
2022-08-05T14:38:31.883Z,100120.63
2022-08-05T14:41:06.034Z,100133.56
2022-08-05T14:43:57.540Z,100132.63
2022-08-05T14:46:29.052Z,100122.41
2022-08-05T14:49:06.282Z,100133.53
2022-08-05T14:51:35.872Z,100127.28
2022-08-05T14:54:29.905Z,100127.97
2022-08-05T14:56:56.187Z,100132.13
2022-08-05T14:59:24.164Z,100137.38
2022-08-05T15:01:53.724Z,100130.31
2022-08-05T15:04:24.519Z,100118.97
2022-08-05T15:06:57.083Z,100130.22
2022-08-05T15:09:52.561Z,100141.22
2022-08-05T15:12:16.985Z,100143.88
2022-08-05T15:14:49.861Z,100138.19
2022-08-05T15:17:47.270Z,100126.56
2022-08-05T15:20:18.687Z,100138.81
2022-08-05T15:22:53.995Z,100130.56
2022-08-05T15:25:41.378Z,100124.59
2022-08-05T15:28:15.783Z,100123.03
2022-08-05T15:30:52.879Z,100133.94
2022-08-05T15:33:56.922Z,100135.91
2022-08-05T15:36:17.862Z,100136.97
2022-08-05T15:40:59.733Z,100132.69
2022-08-05T15:41:56.156Z,100134.38
2022-08-05T15:44:27.538Z,100143.06
2022-08-05T15:46:55.973Z,100143.34
2022-08-05T15:49:53.555Z,100155.59
2022-08-05T15:52:29.571Z,100143.28
2022-08-05T15:55:02.198Z,100155.09
2022-08-05T15:57:33.110Z,100146.63
2022-08-05T16:00:04.119Z,100146.94
2022-08-05T16:02:32.526Z,100145.25
2022-08-05T16:05:03.279Z,100138.97
2022-08-05T16:07:34.465Z,100142.19
2022-08-05T16:10:03.479Z,100142.59
2022-08-05T16:12:33.109Z,100142.97
2022-08-05T16:15:02.233Z,100142.91
2022-08-05T16:17:32.304Z,100148.31
2022-08-05T16:20:05.014Z,100137.09
2022-08-05T16:22:35.906Z,100124.50
2022-08-05T16:25:09.388Z,100129.56
2022-08-05T16:28:00.925Z,100137.22
2022-08-05T16:30:29.044Z,100154.94
2022-08-05T16:33:00.523Z,100150.91
2022-08-05T16:35:32.346Z,100144.72
2022-08-05T16:38:16.768Z,100149.91
2022-08-05T16:42:12.289Z,100142.44
2022-08-05T16:43:57.555Z,100155.75
2022-08-05T16:46:25.660Z,100154.19
2022-08-05T16:48:53.629Z,100144.59
2022-08-05T16:51:23.750Z,100155.00
2022-08-05T16:54:06.074Z,100149.63
2022-08-05T16:56:43.115Z,100140.00
2022-08-05T16:59:15.655Z,100146.19
2022-08-05T17:01:54.950Z,100145.84
2022-08-05T17:04:26.500Z,100138.81
2022-08-05T17:06:55.692Z,100143.69
2022-08-05T17:09:28.460Z,100135.47
2022-08-05T17:12:00.001Z,100140.47
2022-08-05T17:14:37.022Z,100147.78
2022-08-05T17:17:14.280Z,100154.72
2022-08-05T17:19:45.594Z,100146.00
2022-08-05T17:22:17.880Z,100156.19
2022-08-05T17:24:57.691Z,100156.78
2022-08-05T17:27:34.472Z,100158.50
2022-08-05T17:30:12.100Z,100151.84
2022-08-05T17:32:58.813Z,100150.84
2022-08-05T17:35:32.655Z,100150.47
2022-08-05T17:38:17.516Z,100149.94
2022-08-05T17:40:45.711Z,100169.09
2022-08-05T17:43:15.618Z,100163.53
2022-08-05T17:45:45.792Z,100178.41
2022-08-05T17:48:13.767Z,100169.47
2022-08-05T17:50:44.036Z,100173.50
2022-08-05T17:53:12.069Z,100170.09
2022-08-05T17:55:40.321Z,100175.91
2022-08-05T17:58:11.043Z,100171.34
2022-08-05T18:00:39.926Z,100162.38
2022-08-05T18:03:55.842Z,100162.22
2022-08-05T18:06:12.215Z,100165.50
2022-08-05T18:08:44.836Z,100160.31
2022-08-05T18:11:24.652Z,100160.66
2022-08-05T18:14:03.657Z,100149.22
2022-08-05T18:16:35.484Z,100148.97
2022-08-05T18:19:23.020Z,100160.44
2022-08-05T18:22:09.725Z,100151.50
2022-08-05T18:24:40.066Z,100151.25
2022-08-05T18:27:18.197Z,100155.06
2022-08-05T18:29:53.703Z,100160.25
2022-08-05T18:32:27.804Z,100154.81
2022-08-05T18:35:01.251Z,100161.03
2022-08-05T18:37:34.581Z,100153.16
2022-08-05T18:40:34.592Z,100156.16
2022-08-05T18:42:57.985Z,100156.19
2022-08-05T18:45:41.732Z,100166.25
2022-08-05T18:48:17.502Z,100153.47
2022-08-05T18:52:02.683Z,100161.56
2022-08-05T18:54:06.890Z,100154.78
2022-08-05T18:56:37.195Z,100152.59
2022-08-05T18:59:41.892Z,100177.88
2022-08-05T19:01:58.443Z,100172.16
2022-08-05T19:04:27.475Z,100187.03
2022-08-05T19:06:56.931Z,100197.28
2022-08-05T19:09:25.096Z,100188.22
2022-08-05T19:11:59.554Z,100195.72
2022-08-05T19:14:59.313Z,100200.22
2022-08-05T19:17:17.920Z,100208.81
2022-08-05T19:19:48.667Z,100213.38
2022-08-05T19:22:18.457Z,100219.16
2022-08-05T19:25:00.761Z,100224.94
2022-08-05T19:27:30.928Z,100216.53
2022-08-05T19:29:59.378Z,100231.06
2022-08-05T19:32:27.748Z,100219.66
2022-08-05T19:34:56.334Z,100226.91
2022-08-05T19:37:34.829Z,100219.09
2022-08-05T19:40:17.429Z,100229.47
2022-08-05T19:43:04.502Z,100219.69
2022-08-05T19:45:37.022Z,100207.13
2022-08-05T19:48:06.213Z,100227.16
2022-08-05T19:50:35.182Z,100226.25
2022-08-05T19:53:09.690Z,100217.59
2022-08-05T19:56:15.738Z,100217.56
2022-08-05T19:58:29.211Z,100214.03
2022-08-05T20:00:58.006Z,100217.91
2022-08-05T20:03:27.463Z,100218.69
2022-08-05T20:06:15.678Z,100216.47
2022-08-05T20:08:47.632Z,100225.91
2022-08-05T20:11:18.055Z,100227.72
2022-08-05T20:13:58.525Z,100227.38
2022-08-05T20:16:41.274Z,100240.53
2022-08-05T20:19:11.558Z,100227.38
2022-08-05T20:21:44.675Z,100223.34
2022-08-05T20:24:14.646Z,100225.50
2022-08-05T20:26:44.314Z,100235.75
2022-08-05T20:29:26.638Z,100243.13
2022-08-05T20:31:58.227Z,100238.69
2022-08-05T20:34:27.782Z,100241.72
2022-08-05T20:36:55.866Z,100241.75
2022-08-05T20:39:25.813Z,100246.91
2022-08-05T20:42:03.782Z,100238.13
2022-08-05T20:44:37.849Z,100238.19
2022-08-05T20:47:07.750Z,100230.78
2022-08-05T20:49:47.713Z,100238.00
2022-08-05T20:52:19.316Z,100244.34
2022-08-05T20:54:59.077Z,100240.41
2022-08-05T20:57:42.084Z,100237.41
2022-08-05T21:00:41.232Z,100242.97
2022-08-05T21:03:07.202Z,100247.56
2022-08-05T21:05:53.606Z,100246.59
2022-08-05T21:08:33.160Z,100249.34
2022-08-05T21:11:12.016Z,100251.31
2022-08-05T21:13:47.745Z,100241.22
2022-08-05T21:16:29.692Z,100233.94
2022-08-05T21:19:00.392Z,100232.94
2022-08-05T21:21:39.786Z,100233.84
2022-08-05T21:24:15.525Z,100234.88
2022-08-05T21:27:00.476Z,100231.69
2022-08-05T21:29:31.352Z,100229.66
2022-08-05T21:32:00.593Z,100236.03
2022-08-05T21:34:28.656Z,100234.97
2022-08-05T21:36:59.836Z,100238.06
2022-08-05T21:39:28.183Z,100227.78
2022-08-05T21:42:02.315Z,100225.31
2022-08-05T21:44:30.991Z,100232.06
2022-08-05T21:47:00.015Z,100233.22
2022-08-05T21:49:48.205Z,100226.44
2022-08-05T21:52:27.749Z,100232.72
2022-08-05T21:54:56.585Z,100225.66
2022-08-05T21:57:31.572Z,100229.31
2022-08-05T22:00:06.207Z,100224.78
2022-08-05T22:02:35.294Z,100218.09
2022-08-05T22:05:04.558Z,100222.38
2022-08-05T22:07:40.053Z,100227.94
2022-08-05T22:10:26.586Z,100226.94
2022-08-05T22:13:08.575Z,100206.94
2022-08-05T22:16:00.382Z,100222.25
2022-08-05T22:18:27.064Z,100217.56
2022-08-05T22:20:55.895Z,100212.66
2022-08-05T22:24:02.160Z,100216.25
2022-08-05T22:26:55.703Z,100213.03
2022-08-05T22:29:32.876Z,100215.78
2022-08-05T22:32:03.151Z,100214.53
2022-08-05T22:34:32.106Z,100222.72
2022-08-05T22:37:00.637Z,100207.72
2022-08-05T22:39:33.836Z,100207.56
2022-08-05T22:42:10.916Z,100214.16
2022-08-05T22:44:42.495Z,100213.59
2022-08-05T22:47:28.972Z,100208.63
2022-08-05T22:50:19.081Z,100213.09
2022-08-05T22:52:47.224Z,100207.94
2022-08-05T22:55:18.943Z,100213.25
2022-08-05T22:57:49.811Z,100203.78
2022-08-05T23:00:21.985Z,100197.81
2022-08-05T23:02:50.974Z,100206.78
2022-08-05T23:05:21.874Z,100201.81
2022-08-05T23:07:50.702Z,100187.78
2022-08-05T23:10:19.552Z,100184.41
2022-08-05T23:12:51.152Z,100189.81
2022-08-05T23:15:38.231Z,100193.84
2022-08-05T23:18:16.001Z,100196.41
2022-08-05T23:20:44.155Z,100196.50
2022-08-05T23:23:12.314Z,100200.59
2022-08-05T23:25:52.568Z,100199.31
2022-08-05T23:28:23.013Z,100201.72
2022-08-05T23:30:54.772Z,100202.78
2022-08-05T23:33:26.346Z,100201.91
2022-08-05T23:36:13.817Z,100203.03
2022-08-05T23:38:42.815Z,100209.38
2022-08-05T23:41:11.878Z,100198.34
2022-08-05T23:44:05.954Z,100200.16
2022-08-05T23:46:46.323Z,100207.25
2022-08-05T23:49:17.043Z,100197.44
2022-08-05T23:52:07.876Z,100203.66
2022-08-05T23:54:38.384Z,100196.06
2022-08-05T23:57:08.450Z,100194.19
